sensor_id;sensor_type;location;lat;lon;timestamp;P1;durP1;ratioP1;P2;durP2;ratioP2
24644;SDS011;12780;45.502;9.146;2022-10-16T00:01:07;98.40;;;50.22;;
24644;SDS011;12780;45.502;9.146;2022-10-16T00:03:35;96.65;;;50.92;;
24644;SDS011;12780;45.502;9.146;2022-10-16T00:06:02;102.80;;;50.65;;
24644;SDS011;12780;45.502;9.146;2022-10-16T00:08:28;93.45;;;50.42;;
24644;SDS011;12780;45.502;9.146;2022-10-16T00:11:01;97.28;;;49.22;;
24644;SDS011;12780;45.502;9.146;2022-10-16T00:13:32;102.95;;;48.35;;
24644;SDS011;12780;45.502;9.146;2022-10-16T00:16:00;96.93;;;48.40;;
24644;SDS011;12780;45.502;9.146;2022-10-16T00:18:26;92.57;;;49.45;;
24644;SDS011;12780;45.502;9.146;2022-10-16T00:20:53;92.65;;;49.78;;
24644;SDS011;12780;45.502;9.146;2022-10-16T00:23:19;90.18;;;48.38;;
24644;SDS011;12780;45.502;9.146;2022-10-16T00:25:53;90.47;;;48.10;;
24644;SDS011;12780;45.502;9.146;2022-10-16T00:28:20;88.70;;;48.42;;
24644;SDS011;12780;45.502;9.146;2022-10-16T00:30:46;88.45;;;48.45;;
24644;SDS011;12780;45.502;9.146;2022-10-16T00:33:11;90.50;;;48.05;;
24644;SDS011;12780;45.502;9.146;2022-10-16T00:35:37;94.05;;;48.50;;
24644;SDS011;12780;45.502;9.146;2022-10-16T00:38:02;87.70;;;46.20;;
24644;SDS011;12780;45.502;9.146;2022-10-16T00:40:28;98.22;;;49.03;;
24644;SDS011;12780;45.502;9.146;2022-10-16T00:42:54;91.00;;;49.25;;
24644;SDS011;12780;45.502;9.146;2022-10-16T00:45:20;87.65;;;47.20;;
24644;SDS011;12780;45.502;9.146;2022-10-16T00:47:45;91.07;;;48.10;;
24644;SDS011;12780;45.502;9.146;2022-10-16T00:52:52;90.85;;;47.17;;
24644;SDS011;12780;45.502;9.146;2022-10-16T00:55:19;92.55;;;48.60;;
24644;SDS011;12780;45.502;9.146;2022-10-16T00:57:45;89.57;;;47.42;;
24644;SDS011;12780;45.502;9.146;2022-10-16T01:00:13;92.30;;;49.60;;
24644;SDS011;12780;45.502;9.146;2022-10-16T01:02:41;95.20;;;50.22;;
24644;SDS011;12780;45.502;9.146;2022-10-16T01:05:06;98.13;;;48.28;;
24644;SDS011;12780;45.502;9.146;2022-10-16T01:07:36;99.53;;;50.33;;
24644;SDS011;12780;45.502;9.146;2022-10-16T01:10:06;95.35;;;49.45;;
24644;SDS011;12780;45.502;9.146;2022-10-16T01:17:57;105.88;;;51.30;;
24644;SDS011;12780;45.502;9.146;2022-10-16T01:20:32;93.20;;;48.13;;
24644;SDS011;12780;45.502;9.146;2022-10-16T01:31:34;91.05;;;49.78;;
24644;SDS011;12780;45.502;9.146;2022-10-16T01:34:05;95.28;;;51.97;;
24644;SDS011;12780;45.502;9.146;2022-10-16T01:36:38;97.75;;;51.03;;
24644;SDS011;12780;45.502;9.146;2022-10-16T01:39:08;92.72;;;50.67;;
24644;SDS011;12780;45.502;9.146;2022-10-16T01:41:37;97.20;;;51.53;;
24644;SDS011;12780;45.502;9.146;2022-10-16T01:44:10;95.25;;;51.38;;
24644;SDS011;12780;45.502;9.146;2022-10-16T01:46:42;96.82;;;50.45;;
24644;SDS011;12780;45.502;9.146;2022-10-16T01:49:11;92.32;;;49.70;;
24644;SDS011;12780;45.502;9.146;2022-10-16T01:51:37;97.13;;;50.60;;
24644;SDS011;12780;45.502;9.146;2022-10-16T01:54:04;94.97;;;50.40;;
24644;SDS011;12780;45.502;9.146;2022-10-16T01:56:32;95.43;;;49.95;;
24644;SDS011;12780;45.502;9.146;2022-10-16T01:59:01;100.07;;;50.90;;
24644;SDS011;12780;45.502;9.146;2022-10-16T02:01:43;96.28;;;50.13;;
24644;SDS011;12780;45.502;9.146;2022-10-16T02:04:17;99.07;;;50.85;;
24644;SDS011;12780;45.502;9.146;2022-10-16T02:06:47;106.25;;;50.42;;
24644;SDS011;12780;45.502;9.146;2022-10-16T02:09:13;94.40;;;49.70;;
24644;SDS011;12780;45.502;9.146;2022-10-16T02:11:41;94.35;;;50.00;;
24644;SDS011;12780;45.502;9.146;2022-10-16T02:14:07;101.95;;;49.50;;
24644;SDS011;12780;45.502;9.146;2022-10-16T02:16:40;93.70;;;48.70;;
24644;SDS011;12780;45.502;9.146;2022-10-16T02:19:07;94.43;;;50.05;;
24644;SDS011;12780;45.502;9.146;2022-10-16T02:24:12;93.53;;;48.58;;
24644;SDS011;12780;45.502;9.146;2022-10-16T02:26:54;95.88;;;48.00;;
24644;SDS011;12780;45.502;9.146;2022-10-16T02:29:27;90.18;;;47.17;;
24644;SDS011;12780;45.502;9.146;2022-10-16T02:32:01;91.72;;;47.78;;
24644;SDS011;12780;45.502;9.146;2022-10-16T02:34:29;91.25;;;48.58;;
24644;SDS011;12780;45.502;9.146;2022-10-16T02:36:57;102.47;;;48.03;;
24644;SDS011;12780;45.502;9.146;2022-10-16T02:39:25;90.82;;;48.33;;
24644;SDS011;12780;45.502;9.146;2022-10-16T02:41:53;90.72;;;47.05;;
24644;SDS011;12780;45.502;9.146;2022-10-16T02:44:19;82.40;;;44.92;;
24644;SDS011;12780;45.502;9.146;2022-10-16T02:46:44;90.70;;;46.90;;
24644;SDS011;12780;45.502;9.146;2022-10-16T02:49:10;84.68;;;46.83;;
24644;SDS011;12780;45.502;9.146;2022-10-16T02:51:35;84.90;;;47.65;;
24644;SDS011;12780;45.502;9.146;2022-10-16T02:54:01;88.75;;;47.65;;
24644;SDS011;12780;45.502;9.146;2022-10-16T02:56:27;84.20;;;44.97;;
24644;SDS011;12780;45.502;9.146;2022-10-16T02:58:54;79.22;;;43.60;;
24644;SDS011;12780;45.502;9.146;2022-10-16T03:01:20;85.10;;;45.50;;
24644;SDS011;12780;45.502;9.146;2022-10-16T03:03:45;79.18;;;43.05;;
24644;SDS011;12780;45.502;9.146;2022-10-16T03:06:11;83.00;;;44.40;;
24644;SDS011;12780;45.502;9.146;2022-10-16T03:08:36;84.93;;;45.15;;
24644;SDS011;12780;45.502;9.146;2022-10-16T03:11:02;74.60;;;41.10;;
24644;SDS011;12780;45.502;9.146;2022-10-16T03:13:27;80.65;;;41.35;;
24644;SDS011;12780;45.502;9.146;2022-10-16T03:15:53;70.57;;;40.05;;
24644;SDS011;12780;45.502;9.146;2022-10-16T03:18:19;73.40;;;41.05;;
24644;SDS011;12780;45.502;9.146;2022-10-16T03:20:44;76.65;;;41.38;;
24644;SDS011;12780;45.502;9.146;2022-10-16T03:23:10;67.45;;;38.97;;
24644;SDS011;12780;45.502;9.146;2022-10-16T03:25:36;69.90;;;40.55;;
24644;SDS011;12780;45.502;9.146;2022-10-16T03:28:01;73.30;;;40.20;;
24644;SDS011;12780;45.502;9.146;2022-10-16T03:30:28;73.05;;;42.08;;
24644;SDS011;12780;45.502;9.146;2022-10-16T03:32:53;70.43;;;39.92;;
24644;SDS011;12780;45.502;9.146;2022-10-16T03:35:22;68.60;;;39.67;;
24644;SDS011;12780;45.502;9.146;2022-10-16T03:37:49;80.15;;;40.80;;
24644;SDS011;12780;45.502;9.146;2022-10-16T03:40:15;69.32;;;39.08;;
24644;SDS011;12780;45.502;9.146;2022-10-16T03:42:42;72.50;;;40.70;;
24644;SDS011;12780;45.502;9.146;2022-10-16T03:45:08;71.03;;;40.10;;
24644;SDS011;12780;45.502;9.146;2022-10-16T03:47:34;75.57;;;41.75;;
24644;SDS011;12780;45.502;9.146;2022-10-16T03:50:00;71.38;;;39.28;;
24644;SDS011;12780;45.502;9.146;2022-10-16T03:52:26;69.50;;;39.05;;
24644;SDS011;12780;45.502;9.146;2022-10-16T03:54:52;67.20;;;39.25;;
24644;SDS011;12780;45.502;9.146;2022-10-16T03:57:18;74.07;;;39.80;;
24644;SDS011;12780;45.502;9.146;2022-10-16T03:59:43;70.60;;;40.45;;
24644;SDS011;12780;45.502;9.146;2022-10-16T04:02:09;65.95;;;38.08;;
24644;SDS011;12780;45.502;9.146;2022-10-16T04:04:35;70.30;;;39.70;;
24644;SDS011;12780;45.502;9.146;2022-10-16T04:07:00;71.75;;;38.28;;
24644;SDS011;12780;45.502;9.146;2022-10-16T04:09:26;62.67;;;36.45;;
24644;SDS011;12780;45.502;9.146;2022-10-16T04:11:52;72.72;;;37.08;;
24644;SDS011;12780;45.502;9.146;2022-10-16T04:14:17;60.85;;;35.58;;
24644;SDS011;12780;45.502;9.146;2022-10-16T04:16:43;67.40;;;37.17;;
24644;SDS011;12780;45.502;9.146;2022-10-16T04:19:09;68.65;;;36.67;;
24644;SDS011;12780;45.502;9.146;2022-10-16T04:21:35;68.95;;;37.03;;
24644;SDS011;12780;45.502;9.146;2022-10-16T04:24:01;65.93;;;37.03;;
24644;SDS011;12780;45.502;9.146;2022-10-16T04:26:26;62.33;;;36.60;;
24644;SDS011;12780;45.502;9.146;2022-10-16T04:28:52;61.42;;;35.15;;
24644;SDS011;12780;45.502;9.146;2022-10-16T04:31:18;63.17;;;35.67;;
24644;SDS011;12780;45.502;9.146;2022-10-16T04:33:43;60.17;;;35.80;;
24644;SDS011;12780;45.502;9.146;2022-10-16T04:36:09;63.38;;;34.30;;
24644;SDS011;12780;45.502;9.146;2022-10-16T04:38:34;58.33;;;34.28;;
24644;SDS011;12780;45.502;9.146;2022-10-16T04:41:02;58.70;;;34.58;;
24644;SDS011;12780;45.502;9.146;2022-10-16T04:43:28;60.53;;;34.85;;
24644;SDS011;12780;45.502;9.146;2022-10-16T04:45:53;58.88;;;34.20;;
24644;SDS011;12780;45.502;9.146;2022-10-16T04:48:19;60.75;;;34.55;;
24644;SDS011;12780;45.502;9.146;2022-10-16T04:50:45;60.08;;;34.13;;
24644;SDS011;12780;45.502;9.146;2022-10-16T04:53:11;56.63;;;32.92;;
24644;SDS011;12780;45.502;9.146;2022-10-16T04:55:37;58.47;;;34.40;;
24644;SDS011;12780;45.502;9.146;2022-10-16T04:58:03;58.35;;;32.85;;
24644;SDS011;12780;45.502;9.146;2022-10-16T05:00:29;62.85;;;35.38;;
24644;SDS011;12780;45.502;9.146;2022-10-16T05:02:55;59.35;;;33.08;;
24644;SDS011;12780;45.502;9.146;2022-10-16T05:05:21;61.28;;;33.20;;
24644;SDS011;12780;45.502;9.146;2022-10-16T05:07:47;58.30;;;32.95;;
24644;SDS011;12780;45.502;9.146;2022-10-16T05:10:14;53.40;;;32.45;;
24644;SDS011;12780;45.502;9.146;2022-10-16T05:12:40;58.60;;;33.42;;
24644;SDS011;12780;45.502;9.146;2022-10-16T05:15:05;57.38;;;31.75;;
24644;SDS011;12780;45.502;9.146;2022-10-16T05:17:31;58.63;;;33.00;;
24644;SDS011;12780;45.502;9.146;2022-10-16T05:19:57;57.22;;;32.65;;
24644;SDS011;12780;45.502;9.146;2022-10-16T05:22:23;52.40;;;32.78;;
24644;SDS011;12780;45.502;9.146;2022-10-16T05:24:49;55.08;;;31.65;;
24644;SDS011;12780;45.502;9.146;2022-10-16T05:27:14;52.40;;;31.83;;
24644;SDS011;12780;45.502;9.146;2022-10-16T05:29:47;55.38;;;31.75;;
24644;SDS011;12780;45.502;9.146;2022-10-16T05:32:14;51.80;;;31.48;;
24644;SDS011;12780;45.502;9.146;2022-10-16T05:34:40;55.63;;;31.40;;
24644;SDS011;12780;45.502;9.146;2022-10-16T05:37:06;53.55;;;31.33;;
24644;SDS011;12780;45.502;9.146;2022-10-16T05:39:32;50.83;;;30.33;;
24644;SDS011;12780;45.502;9.146;2022-10-16T05:41:57;51.45;;;31.63;;
24644;SDS011;12780;45.502;9.146;2022-10-16T05:44:23;51.80;;;31.17;;
24644;SDS011;12780;45.502;9.146;2022-10-16T05:46:49;50.78;;;29.88;;
24644;SDS011;12780;45.502;9.146;2022-10-16T05:49:14;51.72;;;30.33;;
24644;SDS011;12780;45.502;9.146;2022-10-16T05:51:40;49.42;;;29.75;;
24644;SDS011;12780;45.502;9.146;2022-10-16T05:54:06;53.70;;;31.35;;
24644;SDS011;12780;45.502;9.146;2022-10-16T05:56:32;53.63;;;30.73;;
24644;SDS011;12780;45.502;9.146;2022-10-16T05:58:58;51.78;;;30.55;;
24644;SDS011;12780;45.502;9.146;2022-10-16T06:01:23;48.90;;;30.20;;
24644;SDS011;12780;45.502;9.146;2022-10-16T06:03:50;52.72;;;30.20;;
24644;SDS011;12780;45.502;9.146;2022-10-16T06:06:17;57.90;;;31.30;;
24644;SDS011;12780;45.502;9.146;2022-10-16T06:08:45;52.45;;;30.60;;
24644;SDS011;12780;45.502;9.146;2022-10-16T06:11:14;50.88;;;29.40;;
24644;SDS011;12780;45.502;9.146;2022-10-16T06:13:41;51.80;;;30.42;;
24644;SDS011;12780;45.502;9.146;2022-10-16T06:16:08;52.05;;;31.02;;
24644;SDS011;12780;45.502;9.146;2022-10-16T06:18:35;51.83;;;30.27;;
24644;SDS011;12780;45.502;9.146;2022-10-16T06:21:06;50.30;;;29.80;;
24644;SDS011;12780;45.502;9.146;2022-10-16T06:23:33;47.80;;;28.97;;
24644;SDS011;12780;45.502;9.146;2022-10-16T06:26:08;51.65;;;30.73;;
24644;SDS011;12780;45.502;9.146;2022-10-16T06:28:35;47.85;;;29.17;;
24644;SDS011;12780;45.502;9.146;2022-10-16T06:31:02;49.85;;;29.77;;
24644;SDS011;12780;45.502;9.146;2022-10-16T06:33:29;48.53;;;29.38;;
24644;SDS011;12780;45.502;9.146;2022-10-16T06:35:59;50.55;;;29.98;;
24644;SDS011;12780;45.502;9.146;2022-10-16T06:40:53;48.42;;;28.90;;
24644;SDS011;12780;45.502;9.146;2022-10-16T06:43:19;45.97;;;28.30;;
24644;SDS011;12780;45.502;9.146;2022-10-16T06:45:50;47.53;;;28.48;;
24644;SDS011;12780;45.502;9.146;2022-10-16T06:48:19;46.22;;;27.52;;
24644;SDS011;12780;45.502;9.146;2022-10-16T06:50:54;47.45;;;29.23;;
24644;SDS011;12780;45.502;9.146;2022-10-16T06:53:22;48.55;;;28.98;;
24644;SDS011;12780;45.502;9.146;2022-10-16T06:55:47;50.75;;;29.15;;
24644;SDS011;12780;45.502;9.146;2022-10-16T06:58:13;49.25;;;29.23;;
24644;SDS011;12780;45.502;9.146;2022-10-16T07:00:38;49.92;;;28.75;;
24644;SDS011;12780;45.502;9.146;2022-10-16T07:03:04;48.58;;;28.90;;
24644;SDS011;12780;45.502;9.146;2022-10-16T07:05:30;48.63;;;28.92;;
24644;SDS011;12780;45.502;9.146;2022-10-16T07:07:55;47.10;;;27.98;;
24644;SDS011;12780;45.502;9.146;2022-10-16T07:10:21;50.63;;;28.27;;
24644;SDS011;12780;45.502;9.146;2022-10-16T07:12:49;48.10;;;28.30;;
24644;SDS011;12780;45.502;9.146;2022-10-16T07:15:14;46.58;;;28.98;;
24644;SDS011;12780;45.502;9.146;2022-10-16T07:17:40;47.13;;;29.33;;
24644;SDS011;12780;45.502;9.146;2022-10-16T07:20:06;52.40;;;30.17;;
24644;SDS011;12780;45.502;9.146;2022-10-16T07:22:32;52.70;;;29.67;;
24644;SDS011;12780;45.502;9.146;2022-10-16T07:24:57;50.60;;;29.90;;
24644;SDS011;12780;45.502;9.146;2022-10-16T07:27:23;49.22;;;29.23;;
24644;SDS011;12780;45.502;9.146;2022-10-16T07:29:49;51.70;;;29.90;;
24644;SDS011;12780;45.502;9.146;2022-10-16T07:32:15;56.58;;;30.35;;
24644;SDS011;12780;45.502;9.146;2022-10-16T07:34:41;47.95;;;29.30;;
24644;SDS011;12780;45.502;9.146;2022-10-16T07:37:07;51.88;;;30.83;;
24644;SDS011;12780;45.502;9.146;2022-10-16T07:39:32;51.95;;;30.88;;
24644;SDS011;12780;45.502;9.146;2022-10-16T07:41:58;51.75;;;31.73;;
24644;SDS011;12780;45.502;9.146;2022-10-16T07:44:24;51.83;;;29.92;;
24644;SDS011;12780;45.502;9.146;2022-10-16T07:46:49;53.55;;;29.88;;
24644;SDS011;12780;45.502;9.146;2022-10-16T07:49:15;50.35;;;30.40;;
24644;SDS011;12780;45.502;9.146;2022-10-16T07:51:40;50.92;;;31.13;;
24644;SDS011;12780;45.502;9.146;2022-10-16T07:54:07;56.15;;;31.98;;
24644;SDS011;12780;45.502;9.146;2022-10-16T07:56:34;55.83;;;30.25;;
24644;SDS011;12780;45.502;9.146;2022-10-16T07:59:00;50.50;;;30.27;;
24644;SDS011;12780;45.502;9.146;2022-10-16T08:01:25;52.03;;;31.63;;
24644;SDS011;12780;45.502;9.146;2022-10-16T08:03:51;51.80;;;31.25;;
24644;SDS011;12780;45.502;9.146;2022-10-16T08:06:18;52.25;;;30.42;;
24644;SDS011;12780;45.502;9.146;2022-10-16T08:08:44;59.22;;;31.85;;
24644;SDS011;12780;45.502;9.146;2022-10-16T08:11:10;53.80;;;30.50;;
24644;SDS011;12780;45.502;9.146;2022-10-16T08:13:36;55.97;;;31.88;;
24644;SDS011;12780;45.502;9.146;2022-10-16T08:16:02;59.58;;;31.75;;
24644;SDS011;12780;45.502;9.146;2022-10-16T08:18:32;50.72;;;30.10;;
24644;SDS011;12780;45.502;9.146;2022-10-16T08:20:59;53.03;;;31.20;;
24644;SDS011;12780;45.502;9.146;2022-10-16T08:23:25;54.58;;;32.45;;
24644;SDS011;12780;45.502;9.146;2022-10-16T08:25:54;63.97;;;33.95;;
24644;SDS011;12780;45.502;9.146;2022-10-16T08:28:21;58.78;;;32.75;;
24644;SDS011;12780;45.502;9.146;2022-10-16T08:30:48;58.55;;;32.83;;
24644;SDS011;12780;45.502;9.146;2022-10-16T08:33:13;57.58;;;32.63;;
24644;SDS011;12780;45.502;9.146;2022-10-16T08:35:39;60.17;;;33.75;;
24644;SDS011;12780;45.502;9.146;2022-10-16T08:38:05;65.55;;;35.53;;
24644;SDS011;12780;45.502;9.146;2022-10-16T08:40:32;61.15;;;35.17;;
24644;SDS011;12780;45.502;9.146;2022-10-16T08:45:43;68.88;;;35.38;;
24644;SDS011;12780;45.502;9.146;2022-10-16T08:48:29;75.55;;;36.42;;
24644;SDS011;12780;45.502;9.146;2022-10-16T08:50:55;65.75;;;36.00;;
24644;SDS011;12780;45.502;9.146;2022-10-16T08:53:26;63.90;;;36.15;;
24644;SDS011;12780;45.502;9.146;2022-10-16T08:55:56;67.15;;;36.40;;
24644;SDS011;12780;45.502;9.146;2022-10-16T08:58:26;71.00;;;36.45;;
24644;SDS011;12780;45.502;9.146;2022-10-16T09:00:54;72.35;;;38.45;;
24644;SDS011;12780;45.502;9.146;2022-10-16T09:16:30;95.70;;;45.45;;
24644;SDS011;12780;45.502;9.146;2022-10-16T09:19:04;92.28;;;44.33;;
24644;SDS011;12780;45.502;9.146;2022-10-16T09:21:41;84.63;;;43.72;;
24644;SDS011;12780;45.502;9.146;2022-10-16T09:24:16;93.63;;;44.63;;
24644;SDS011;12780;45.502;9.146;2022-10-16T09:26:46;90.20;;;44.60;;
24644;SDS011;12780;45.502;9.146;2022-10-16T09:29:12;87.00;;;42.05;;
24644;SDS011;12780;45.502;9.146;2022-10-16T09:31:44;87.93;;;43.10;;
24644;SDS011;12780;45.502;9.146;2022-10-16T09:34:20;90.65;;;43.85;;
24644;SDS011;12780;45.502;9.146;2022-10-16T09:36:55;81.50;;;42.65;;
24644;SDS011;12780;45.502;9.146;2022-10-16T09:39:23;85.95;;;44.83;;
24644;SDS011;12780;45.502;9.146;2022-10-16T09:41:49;83.95;;;45.05;;
24644;SDS011;12780;45.502;9.146;2022-10-16T09:47:05;86.22;;;43.08;;
24644;SDS011;12780;45.502;9.146;2022-10-16T09:50:02;85.68;;;45.08;;
24644;SDS011;12780;45.502;9.146;2022-10-16T09:52:31;90.57;;;45.30;;
24644;SDS011;12780;45.502;9.146;2022-10-16T09:54:59;91.30;;;45.15;;
24644;SDS011;12780;45.502;9.146;2022-10-16T09:57:48;93.45;;;45.42;;
24644;SDS011;12780;45.502;9.146;2022-10-16T10:00:18;91.00;;;44.55;;
24644;SDS011;12780;45.502;9.146;2022-10-16T10:02:45;78.97;;;44.85;;
24644;SDS011;12780;45.502;9.146;2022-10-16T10:05:21;95.50;;;45.30;;
24644;SDS011;12780;45.502;9.146;2022-10-16T10:07:59;87.47;;;44.25;;
24644;SDS011;12780;45.502;9.146;2022-10-16T10:10:31;90.07;;;44.97;;
24644;SDS011;12780;45.502;9.146;2022-10-16T10:12:58;84.50;;;45.00;;
24644;SDS011;12780;45.502;9.146;2022-10-16T10:15:24;86.47;;;45.95;;
24644;SDS011;12780;45.502;9.146;2022-10-16T10:17:53;95.50;;;46.90;;
24644;SDS011;12780;45.502;9.146;2022-10-16T10:20:30;91.75;;;44.95;;
24644;SDS011;12780;45.502;9.146;2022-10-16T10:22:59;93.95;;;46.63;;
24644;SDS011;12780;45.502;9.146;2022-10-16T10:30:52;91.38;;;45.58;;
24644;SDS011;12780;45.502;9.146;2022-10-16T10:36:38;90.47;;;45.50;;
24644;SDS011;12780;45.502;9.146;2022-10-16T10:39:12;98.07;;;48.00;;
24644;SDS011;12780;45.502;9.146;2022-10-16T10:41:57;104.38;;;50.55;;
24644;SDS011;12780;45.502;9.146;2022-10-16T10:44:42;96.07;;;47.63;;
24644;SDS011;12780;45.502;9.146;2022-10-16T11:06:48;100.32;;;48.70;;
24644;SDS011;12780;45.502;9.146;2022-10-16T11:11:54;95.70;;;49.67;;
24644;SDS011;12780;45.502;9.146;2022-10-16T11:14:40;106.35;;;51.20;;
24644;SDS011;12780;45.502;9.146;2022-10-16T11:17:19;102.68;;;50.50;;
24644;SDS011;12780;45.502;9.146;2022-10-16T11:19:58;100.15;;;49.70;;
24644;SDS011;12780;45.502;9.146;2022-10-16T11:22:50;96.03;;;50.50;;
24644;SDS011;12780;45.502;9.146;2022-10-16T11:28:35;101.38;;;53.25;;
24644;SDS011;12780;45.502;9.146;2022-10-16T11:30:56;100.43;;;52.03;;
24644;SDS011;12780;45.502;9.146;2022-10-16T11:33:32;103.13;;;53.42;;
24644;SDS011;12780;45.502;9.146;2022-10-16T11:41:29;95.18;;;49.15;;
24644;SDS011;12780;45.502;9.146;2022-10-16T11:49:30;105.70;;;50.17;;
24644;SDS011;12780;45.502;9.146;2022-10-16T11:52:19;97.50;;;51.72;;
24644;SDS011;12780;45.502;9.146;2022-10-16T11:55:01;93.70;;;49.08;;
24644;SDS011;12780;45.502;9.146;2022-10-16T11:57:31;96.63;;;50.15;;
24644;SDS011;12780;45.502;9.146;2022-10-16T12:00:09;98.38;;;50.10;;
24644;SDS011;12780;45.502;9.146;2022-10-16T12:05:32;105.93;;;52.53;;
24644;SDS011;12780;45.502;9.146;2022-10-16T12:10:39;107.75;;;54.42;;
24644;SDS011;12780;45.502;9.146;2022-10-16T12:16:06;105.70;;;51.05;;
24644;SDS011;12780;45.502;9.146;2022-10-16T12:18:39;99.70;;;53.85;;
24644;SDS011;12780;45.502;9.146;2022-10-16T12:21:07;102.43;;;52.65;;
24644;SDS011;12780;45.502;9.146;2022-10-16T12:23:38;106.20;;;52.40;;
24644;SDS011;12780;45.502;9.146;2022-10-16T12:26:13;105.70;;;52.40;;
24644;SDS011;12780;45.502;9.146;2022-10-16T12:28:48;107.82;;;51.08;;
24644;SDS011;12780;45.502;9.146;2022-10-16T12:31:16;102.28;;;51.70;;
24644;SDS011;12780;45.502;9.146;2022-10-16T12:36:48;94.50;;;49.92;;
24644;SDS011;12780;45.502;9.146;2022-10-16T12:39:21;102.35;;;50.58;;
24644;SDS011;12780;45.502;9.146;2022-10-16T12:41:59;95.43;;;49.53;;
24644;SDS011;12780;45.502;9.146;2022-10-16T12:44:26;91.95;;;49.50;;
24644;SDS011;12780;45.502;9.146;2022-10-16T12:46:58;95.93;;;49.40;;
24644;SDS011;12780;45.502;9.146;2022-10-16T12:49:31;103.00;;;51.75;;
24644;SDS011;12780;45.502;9.146;2022-10-16T12:52:34;98.22;;;51.40;;
24644;SDS011;12780;45.502;9.146;2022-10-16T12:55:02;104.97;;;54.45;;
24644;SDS011;12780;45.502;9.146;2022-10-16T13:25:42;93.40;;;47.22;;
24644;SDS011;12780;45.502;9.146;2022-10-16T13:28:11;87.70;;;46.80;;
24644;SDS011;12780;45.502;9.146;2022-10-16T13:30:44;94.70;;;50.63;;
24644;SDS011;12780;45.502;9.146;2022-10-16T13:33:24;108.20;;;50.63;;
24644;SDS011;12780;45.502;9.146;2022-10-16T13:35:58;97.28;;;50.50;;
24644;SDS011;12780;45.502;9.146;2022-10-16T13:38:28;94.78;;;48.60;;
24644;SDS011;12780;45.502;9.146;2022-10-16T13:41:04;99.63;;;49.95;;
24644;SDS011;12780;45.502;9.146;2022-10-16T13:43:40;95.70;;;50.70;;
24644;SDS011;12780;45.502;9.146;2022-10-16T13:46:15;99.28;;;48.45;;
24644;SDS011;12780;45.502;9.146;2022-10-16T13:48:43;89.93;;;47.92;;
24644;SDS011;12780;45.502;9.146;2022-10-16T13:53:40;97.93;;;50.17;;
24644;SDS011;12780;45.502;9.146;2022-10-16T13:56:07;101.75;;;51.83;;
24644;SDS011;12780;45.502;9.146;2022-10-16T13:58:36;89.43;;;48.00;;
24644;SDS011;12780;45.502;9.146;2022-10-16T14:01:03;88.93;;;46.72;;
24644;SDS011;12780;45.502;9.146;2022-10-16T14:03:30;87.75;;;46.95;;
24644;SDS011;12780;45.502;9.146;2022-10-16T14:06:00;89.50;;;45.80;;
24644;SDS011;12780;45.502;9.146;2022-10-16T14:08:28;85.32;;;45.33;;
24644;SDS011;12780;45.502;9.146;2022-10-16T14:10:56;81.50;;;43.65;;
24644;SDS011;12780;45.502;9.146;2022-10-16T14:13:28;76.13;;;40.33;;
24644;SDS011;12780;45.502;9.146;2022-10-16T14:16:05;73.93;;;38.50;;
24644;SDS011;12780;45.502;9.146;2022-10-16T14:18:32;77.75;;;41.70;;
24644;SDS011;12780;45.502;9.146;2022-10-16T14:21:06;78.95;;;41.88;;
24644;SDS011;12780;45.502;9.146;2022-10-16T14:23:36;79.00;;;42.45;;
24644;SDS011;12780;45.502;9.146;2022-10-16T14:28:35;82.07;;;43.40;;
24644;SDS011;12780;45.502;9.146;2022-10-16T14:31:13;84.35;;;43.33;;
24644;SDS011;12780;45.502;9.146;2022-10-16T14:33:45;86.27;;;43.93;;
24644;SDS011;12780;45.502;9.146;2022-10-16T14:36:11;79.50;;;43.30;;
24644;SDS011;12780;45.502;9.146;2022-10-16T14:38:41;76.50;;;42.80;;
24644;SDS011;12780;45.502;9.146;2022-10-16T14:41:08;84.25;;;43.78;;
24644;SDS011;12780;45.502;9.146;2022-10-16T14:43:37;85.65;;;46.28;;
24644;SDS011;12780;45.502;9.146;2022-10-16T14:46:11;82.97;;;45.90;;
24644;SDS011;12780;45.502;9.146;2022-10-16T14:48:42;83.75;;;45.70;;
24644;SDS011;12780;45.502;9.146;2022-10-16T14:51:11;79.35;;;43.05;;
24644;SDS011;12780;45.502;9.146;2022-10-16T14:53:42;82.43;;;44.30;;
24644;SDS011;12780;45.502;9.146;2022-10-16T14:56:15;88.10;;;45.97;;
24644;SDS011;12780;45.502;9.146;2022-10-16T14:58:50;85.47;;;46.35;;
24644;SDS011;12780;45.502;9.146;2022-10-16T15:01:17;81.47;;;43.50;;
24644;SDS011;12780;45.502;9.146;2022-10-16T15:03:43;81.18;;;44.75;;
24644;SDS011;12780;45.502;9.146;2022-10-16T15:06:12;80.25;;;43.70;;
24644;SDS011;12780;45.502;9.146;2022-10-16T15:08:40;91.13;;;47.35;;
24644;SDS011;12780;45.502;9.146;2022-10-16T15:11:12;83.97;;;46.25;;
24644;SDS011;12780;45.502;9.146;2022-10-16T15:13:40;89.07;;;45.58;;
24644;SDS011;12780;45.502;9.146;2022-10-16T15:16:15;84.95;;;43.92;;
24644;SDS011;12780;45.502;9.146;2022-10-16T15:18:42;81.10;;;45.00;;
24644;SDS011;12780;45.502;9.146;2022-10-16T15:21:08;76.45;;;43.97;;
24644;SDS011;12780;45.502;9.146;2022-10-16T15:23:42;79.10;;;43.75;;
24644;SDS011;12780;45.502;9.146;2022-10-16T15:26:08;77.95;;;43.08;;
24644;SDS011;12780;45.502;9.146;2022-10-16T15:28:33;78.30;;;42.50;;
24644;SDS011;12780;45.502;9.146;2022-10-16T15:31:00;81.35;;;43.65;;
24644;SDS011;12780;45.502;9.146;2022-10-16T15:33:29;77.43;;;44.15;;
24644;SDS011;12780;45.502;9.146;2022-10-16T15:35:58;78.63;;;41.58;;
24644;SDS011;12780;45.502;9.146;2022-10-16T15:38:24;75.53;;;41.28;;
24644;SDS011;12780;45.502;9.146;2022-10-16T15:40:52;81.30;;;43.70;;
24644;SDS011;12780;45.502;9.146;2022-10-16T15:43:18;91.40;;;46.50;;
24644;SDS011;12780;45.502;9.146;2022-10-16T15:45:44;87.32;;;44.50;;
24644;SDS011;12780;45.502;9.146;2022-10-16T15:48:39;92.88;;;46.58;;
24644;SDS011;12780;45.502;9.146;2022-10-16T15:51:06;88.88;;;46.05;;
24644;SDS011;12780;45.502;9.146;2022-10-16T15:53:33;92.55;;;46.22;;
24644;SDS011;12780;45.502;9.146;2022-10-16T15:56:05;82.97;;;44.10;;
24644;SDS011;12780;45.502;9.146;2022-10-16T15:58:32;81.95;;;44.85;;
24644;SDS011;12780;45.502;9.146;2022-10-16T16:00:58;88.60;;;45.47;;
24644;SDS011;12780;45.502;9.146;2022-10-16T16:03:29;97.78;;;46.80;;
24644;SDS011;12780;45.502;9.146;2022-10-16T16:05:56;89.72;;;44.47;;
24644;SDS011;12780;45.502;9.146;2022-10-16T16:08:22;81.55;;;45.33;;
24644;SDS011;12780;45.502;9.146;2022-10-16T16:10:57;83.50;;;44.47;;
24644;SDS011;12780;45.502;9.146;2022-10-16T16:13:24;80.95;;;44.03;;
24644;SDS011;12780;45.502;9.146;2022-10-16T16:15:50;79.32;;;43.35;;
24644;SDS011;12780;45.502;9.146;2022-10-16T16:18:15;86.85;;;45.63;;
24644;SDS011;12780;45.502;9.146;2022-10-16T16:20:41;89.95;;;46.05;;
24644;SDS011;12780;45.502;9.146;2022-10-16T16:23:06;83.70;;;42.47;;
24644;SDS011;12780;45.502;9.146;2022-10-16T16:25:32;90.53;;;44.20;;
24644;SDS011;12780;45.502;9.146;2022-10-16T16:27:58;81.68;;;44.47;;
24644;SDS011;12780;45.502;9.146;2022-10-16T16:30:23;87.35;;;44.65;;
24644;SDS011;12780;45.502;9.146;2022-10-16T16:32:49;85.57;;;45.90;;
24644;SDS011;12780;45.502;9.146;2022-10-16T16:35:15;97.35;;;53.45;;
24644;SDS011;12780;45.502;9.146;2022-10-16T16:37:40;85.15;;;46.28;;
24644;SDS011;12780;45.502;9.146;2022-10-16T16:40:06;84.22;;;45.13;;